Germantown, Maryland
Current Conditions -  °F | °C
As of 11:55 AM on Wednesday 22 Oct 2014 (Local Time) from KGAI Reporting Station
Broken Clouds Broken Clouds  
Wind Chill: 52°   Ceiling: 4700
Heat Index: 52°   Visibility: 8mi
Dew Point: 48°   Wind: 6mph
Humidity: 88%   Direction: 350°N
Pressure: 29.99"   Gusts: NA
Location:  39.18°N, 77.27°W
Report Text: KGAI 221555Z 35005KT 8SM FEW022 SCT036 BKN047 11/09 A2999 RMK AO1 P0002
Loading
Personal Weather Stations






























Interactive Weather Map New forecast layout! Learn more

10-Day Weather Forecast

Advertisements
Track Severe Weather on mobile